createdAt,value
2018-08-24T00:00:06.545Z,19.11
2018-08-24T00:01:12.121Z,19.11
2018-08-24T00:02:17.915Z,19.07
2018-08-24T00:03:23.636Z,19.03
2018-08-24T00:04:28.485Z,19.08
2018-08-24T00:05:33.305Z,19.08
2018-08-24T00:06:40.717Z,19.03
2018-08-24T00:07:46.808Z,19.02
2018-08-24T00:08:51.572Z,19.02
2018-08-24T00:09:56.281Z,18.97
2018-08-24T00:11:01.032Z,19.02
2018-08-24T00:12:05.986Z,19.06
2018-08-24T00:13:12.025Z,19.10
2018-08-24T00:14:17.781Z,19.03
2018-08-24T00:15:27.724Z,19.03
2018-08-24T00:16:39.666Z,19.14
2018-08-24T00:17:49.794Z,19.12
2018-08-24T00:18:57.674Z,19.09
2018-08-24T00:20:05.318Z,19.06
2018-08-24T00:21:11.544Z,19.00
2018-08-24T00:22:18.892Z,18.97
2018-08-24T00:23:23.507Z,18.96
2018-08-24T00:24:28.089Z,18.94
2018-08-24T00:25:33.297Z,18.94
2018-08-24T00:26:39.517Z,18.89
2018-08-24T00:27:44.463Z,18.91
2018-08-24T00:28:52.580Z,18.90
2018-08-24T00:29:57.563Z,18.91
2018-08-24T00:31:05.032Z,18.90
2018-08-24T00:32:10.272Z,18.92
2018-08-24T00:33:15.194Z,18.89
2018-08-24T00:34:20.688Z,18.85
2018-08-24T00:35:26.169Z,18.81
2018-08-24T00:36:31.715Z,18.79
2018-08-24T00:37:36.331Z,18.76
2018-08-24T00:38:43.138Z,18.76
2018-08-24T00:39:48.294Z,18.76
2018-08-24T00:40:58.573Z,18.74
2018-08-24T00:42:03.450Z,18.76
2018-08-24T00:43:09.227Z,18.83
2018-08-24T00:44:15.744Z,18.84
2018-08-24T00:45:22.528Z,18.84
2018-08-24T00:46:27.786Z,18.85
2018-08-24T00:47:32.486Z,18.83
2018-08-24T00:48:37.222Z,18.84
2018-08-24T00:49:41.990Z,18.82
2018-08-24T00:50:46.688Z,18.80
2018-08-24T00:51:51.426Z,18.78
2018-08-24T00:52:56.697Z,18.76
2018-08-24T00:54:01.410Z,18.80
2018-08-24T00:55:06.110Z,18.79
2018-08-24T00:56:11.774Z,18.77
2018-08-24T00:57:16.496Z,18.74
2018-08-24T00:58:21.253Z,18.83
2018-08-24T00:59:26.757Z,18.88
2018-08-24T01:00:37.338Z,18.80
2018-08-24T01:01:41.935Z,18.80
2018-08-24T01:02:46.498Z,18.80
2018-08-24T01:03:51.038Z,18.76
2018-08-24T01:04:55.746Z,18.74
2018-08-24T01:06:00.807Z,18.70
2018-08-24T01:07:10.681Z,18.70
2018-08-24T01:08:16.671Z,18.69
2018-08-24T01:09:21.271Z,18.68
2018-08-24T01:10:26.692Z,18.66
2018-08-24T01:11:36.503Z,18.65
2018-08-24T01:12:41.889Z,18.64
2018-08-24T01:13:51.134Z,18.64
2018-08-24T01:14:55.856Z,18.71
2018-08-24T01:16:11.161Z,18.66
2018-08-24T01:17:21.316Z,18.59
2018-08-24T01:18:31.112Z,18.74
2018-08-24T01:19:35.848Z,18.73
2018-08-24T01:20:44.640Z,18.82
2018-08-24T01:21:49.436Z,18.77
2018-08-24T01:22:55.159Z,18.72
2018-08-24T01:24:00.336Z,18.67
2018-08-24T01:25:05.105Z,18.64
2018-08-24T01:26:10.564Z,18.65
2018-08-24T01:27:15.332Z,18.55
2018-08-24T01:28:22.327Z,18.46
2018-08-24T01:29:28.512Z,18.42
2018-08-24T01:30:33.795Z,18.36
2018-08-24T01:31:39.178Z,18.31
2018-08-24T01:32:44.716Z,18.30
2018-08-24T01:33:49.821Z,18.27
2018-08-24T01:34:54.709Z,18.26
2018-08-24T01:35:59.481Z,18.22
2018-08-24T01:37:04.918Z,18.23
2018-08-24T01:38:09.769Z,18.28
2018-08-24T01:39:14.537Z,18.22
2018-08-24T01:40:19.318Z,18.27
2018-08-24T01:41:24.113Z,18.31
2018-08-24T01:42:29.365Z,18.22
2018-08-24T01:43:34.672Z,18.17
2018-08-24T01:44:39.470Z,18.11
2018-08-24T01:45:44.189Z,18.16
2018-08-24T01:46:48.965Z,18.21
2018-08-24T01:47:53.691Z,18.25
2018-08-24T01:48:58.961Z,18.18
2018-08-24T01:50:03.733Z,18.14
2018-08-24T01:51:08.479Z,18.18
2018-08-24T01:52:13.247Z,18.32
2018-08-24T01:53:18.981Z,18.36
2018-08-24T01:54:23.761Z,18.25
2018-08-24T01:55:29.006Z,18.12
2018-08-24T01:56:33.749Z,18.05
2018-08-24T01:57:38.521Z,18.05
2018-08-24T01:58:43.285Z,18.03
2018-08-24T01:59:49.228Z,18.02
2018-08-24T02:00:55.301Z,17.99
2018-08-24T02:02:01.655Z,17.97
2018-08-24T02:03:07.425Z,17.98
2018-08-24T02:04:12.161Z,17.98
2018-08-24T02:05:16.909Z,17.95
2018-08-24T02:06:21.557Z,17.92
2018-08-24T02:07:26.477Z,17.94
2018-08-24T02:08:32.216Z,17.98
2018-08-24T02:09:37.960Z,17.96
2018-08-24T02:10:42.704Z,17.96
2018-08-24T02:11:48.438Z,18.00
2018-08-24T02:12:58.065Z,17.96
2018-08-24T02:14:08.281Z,17.98
2018-08-24T02:15:13.034Z,17.97
2018-08-24T02:16:18.596Z,18.00
2018-08-24T02:17:28.270Z,17.95
2018-08-24T02:18:38.135Z,17.93
2018-08-24T02:19:48.240Z,17.94
2018-08-24T02:20:58.418Z,17.97
2018-08-24T02:22:07.976Z,17.90
2018-08-24T02:23:13.540Z,17.88
2018-08-24T02:24:18.210Z,17.91
2018-08-24T02:25:23.329Z,17.97
2018-08-24T02:26:28.465Z,18.10
2018-08-24T02:27:33.132Z,18.09
2018-08-24T02:28:37.736Z,18.01
2018-08-24T02:29:42.442Z,18.00
2018-08-24T02:30:47.110Z,18.12
2018-08-24T02:31:52.178Z,18.21
2018-08-24T02:32:57.205Z,18.28
2018-08-24T02:34:01.860Z,18.15
2018-08-24T02:35:07.446Z,17.93
2018-08-24T02:36:12.176Z,17.90
2018-08-24T02:37:16.948Z,18.08
2018-08-24T02:38:21.717Z,18.18
2018-08-24T02:39:26.904Z,18.12
2018-08-24T02:40:31.964Z,18.04
2018-08-24T02:41:36.757Z,18.02
2018-08-24T02:42:41.391Z,17.96
2018-08-24T02:43:46.070Z,18.03
2018-08-24T02:44:50.730Z,18.04
2018-08-24T02:45:55.820Z,18.05
2018-08-24T02:47:00.454Z,17.94
2018-08-24T02:48:06.865Z,17.71
2018-08-24T02:49:13.135Z,17.61
2018-08-24T02:50:17.838Z,17.75
2018-08-24T02:51:22.487Z,17.78
2018-08-24T02:52:27.581Z,17.57
2018-08-24T02:53:32.353Z,17.49
2018-08-24T02:54:37.105Z,17.67
2018-08-24T02:55:41.730Z,17.64
2018-08-24T02:56:46.483Z,17.64
2018-08-24T02:57:51.225Z,17.72
2018-08-24T02:58:56.456Z,17.69
2018-08-24T03:00:01.230Z,17.69
2018-08-24T03:01:05.945Z,17.75
2018-08-24T03:02:10.681Z,17.82
2018-08-24T03:03:15.463Z,17.84
2018-08-24T03:04:20.182Z,17.77
2018-08-24T03:05:31.297Z,17.80
2018-08-24T03:06:35.990Z,17.73
2018-08-24T03:07:40.780Z,17.72
2018-08-24T03:08:45.628Z,17.74
2018-08-24T03:09:50.352Z,17.70
2018-08-24T03:10:55.127Z,17.72
2018-08-24T03:12:00.233Z,17.68
2018-08-24T03:13:04.980Z,17.68
2018-08-24T03:14:09.780Z,17.58
2018-08-24T03:15:14.508Z,17.52
2018-08-24T03:16:19.294Z,17.47
2018-08-24T03:17:29.392Z,17.36
2018-08-24T03:18:34.125Z,17.35
2018-08-24T03:19:38.881Z,17.22
2018-08-24T03:20:43.685Z,17.13
2018-08-24T03:21:48.519Z,17.09
2018-08-24T03:22:53.394Z,16.91
2018-08-24T03:23:58.655Z,16.80
2018-08-24T03:25:03.433Z,16.79
2018-08-24T03:26:08.182Z,16.85
2018-08-24T03:27:13.032Z,16.82
2018-08-24T03:28:17.820Z,16.76
2018-08-24T03:29:22.602Z,16.65
2018-08-24T03:30:27.775Z,16.70
2018-08-24T03:31:35.782Z,16.72
2018-08-24T03:32:40.556Z,16.70
2018-08-24T03:33:45.293Z,16.58
2018-08-24T03:34:50.081Z,16.56
2018-08-24T03:35:54.871Z,16.42
2018-08-24T03:37:00.280Z,16.34
2018-08-24T03:38:05.567Z,16.36
2018-08-24T03:39:11.783Z,16.31
2018-08-24T03:40:16.525Z,16.25
2018-08-24T03:41:21.248Z,16.26
2018-08-24T03:42:26.006Z,16.13
2018-08-24T03:43:31.135Z,16.12
2018-08-24T03:44:35.912Z,16.16
2018-08-24T03:45:40.727Z,16.16
2018-08-24T03:46:45.488Z,16.20
2018-08-24T03:47:50.275Z,16.20
2018-08-24T03:48:54.994Z,16.20
2018-08-24T03:50:00.274Z,16.12
2018-08-24T03:51:05.053Z,16.07
2018-08-24T03:52:09.981Z,15.91
2018-08-24T03:53:14.822Z,15.96
2018-08-24T03:54:21.116Z,15.89
2018-08-24T03:55:26.304Z,15.84
2018-08-24T03:56:31.064Z,15.80
2018-08-24T03:57:35.908Z,15.95
2018-08-24T03:58:41.149Z,15.96
2018-08-24T03:59:46.760Z,15.93
2018-08-24T04:00:55.953Z,15.74
2018-08-24T04:02:01.272Z,15.62
2018-08-24T04:03:06.057Z,15.55
2018-08-24T04:04:10.858Z,15.48
2018-08-24T04:05:16.021Z,15.44
2018-08-24T04:06:20.797Z,15.37
2018-08-24T04:07:25.941Z,15.41
2018-08-24T04:08:30.810Z,15.58
2018-08-24T04:09:35.593Z,15.65
2018-08-24T04:10:40.326Z,15.64
2018-08-24T04:11:45.212Z,15.56
2018-08-24T04:12:49.888Z,15.57
2018-08-24T04:13:54.941Z,15.50
2018-08-24T04:14:59.643Z,15.58
2018-08-24T04:16:04.292Z,15.62
2018-08-24T04:17:13.841Z,15.49
2018-08-24T04:18:18.524Z,15.50
2018-08-24T04:19:28.326Z,15.55
2018-08-24T04:20:33.034Z,15.47
2018-08-24T04:21:37.652Z,15.30
2018-08-24T04:22:42.310Z,15.12
2018-08-24T04:23:46.916Z,15.00
2018-08-24T04:24:51.597Z,15.15
2018-08-24T04:25:56.688Z,15.10
2018-08-24T04:27:01.356Z,15.16
2018-08-24T04:28:06.051Z,15.12
2018-08-24T04:29:10.774Z,15.08
2018-08-24T04:30:15.412Z,14.93
2018-08-24T04:31:20.105Z,14.88
2018-08-24T04:32:25.209Z,14.99
2018-08-24T04:33:29.805Z,15.00
2018-08-24T04:34:34.432Z,15.17
2018-08-24T04:35:39.085Z,15.32
2018-08-24T04:36:43.768Z,15.37
2018-08-24T04:37:48.422Z,15.20
2018-08-24T04:38:53.428Z,15.23
2018-08-24T04:39:58.065Z,15.17
2018-08-24T04:41:02.673Z,15.11
2018-08-24T04:42:07.315Z,15.20
2018-08-24T04:43:12.111Z,15.17
2018-08-24T04:44:16.830Z,15.24
2018-08-24T04:45:22.095Z,15.29
2018-08-24T04:46:31.749Z,15.34
2018-08-24T04:47:36.483Z,15.30
2018-08-24T04:48:43.088Z,15.26
2018-08-24T04:49:47.965Z,15.19
2018-08-24T04:50:53.519Z,15.17
2018-08-24T04:51:58.280Z,15.12
2018-08-24T04:53:03.260Z,15.07
2018-08-24T04:54:08.063Z,15.07
2018-08-24T04:55:12.779Z,15.12
2018-08-24T04:56:17.564Z,15.21
2018-08-24T04:57:22.929Z,15.13
2018-08-24T04:58:27.646Z,15.19
2018-08-24T04:59:32.515Z,14.92
2018-08-24T05:00:37.292Z,14.79
2018-08-24T05:01:42.161Z,14.89
2018-08-24T05:02:46.976Z,14.90
2018-08-24T05:03:52.161Z,14.90
2018-08-24T05:04:57.312Z,14.86
2018-08-24T05:06:02.206Z,14.78
2018-08-24T05:07:07.770Z,14.74
2018-08-24T05:08:12.689Z,14.85
2018-08-24T05:09:18.578Z,15.05
2018-08-24T05:10:23.979Z,14.93
2018-08-24T05:11:28.700Z,14.73
2018-08-24T05:12:33.432Z,14.70
2018-08-24T05:13:38.304Z,14.95
2018-08-24T05:14:43.068Z,15.07
2018-08-24T05:15:48.773Z,15.13
2018-08-24T05:16:57.216Z,15.16
2018-08-24T05:18:02.454Z,15.17
2018-08-24T05:19:10.051Z,14.92
2018-08-24T05:20:14.845Z,14.88
2018-08-24T05:21:20.089Z,14.78
2018-08-24T05:22:25.355Z,14.70
2018-08-24T05:23:30.785Z,14.77
2018-08-24T05:24:35.503Z,14.88
2018-08-24T05:25:41.204Z,14.84
2018-08-24T05:26:45.981Z,15.06
2018-08-24T05:27:51.274Z,15.23
2018-08-24T05:28:55.981Z,15.20
2018-08-24T05:30:01.070Z,15.17
2018-08-24T05:33:18.171Z,15.13
2018-08-24T05:34:23.277Z,15.24
2018-08-24T05:35:28.023Z,15.32
2018-08-24T05:36:33.053Z,15.38
2018-08-24T05:37:37.843Z,15.30
2018-08-24T05:38:42.541Z,15.35
2018-08-24T05:39:47.965Z,15.33
2018-08-24T05:40:52.779Z,15.43
2018-08-24T05:41:57.473Z,15.47
2018-08-24T05:43:02.849Z,15.45
2018-08-24T05:44:07.523Z,15.52
2018-08-24T05:45:12.337Z,15.31
2018-08-24T05:46:17.436Z,15.30
2018-08-24T05:47:22.247Z,15.41
2018-08-24T05:48:27.041Z,15.39
2018-08-24T05:49:32.743Z,15.39
2018-08-24T05:50:38.102Z,15.46
2018-08-24T05:51:42.900Z,15.52
2018-08-24T05:52:47.822Z,15.59
2018-08-24T05:53:52.485Z,15.63
2018-08-24T05:54:57.105Z,15.55
2018-08-24T05:56:03.029Z,15.41
2018-08-24T05:57:09.146Z,15.38
2018-08-24T05:58:13.749Z,15.31
2018-08-24T05:59:18.444Z,15.33
2018-08-24T06:00:28.256Z,15.21
2018-08-24T06:01:33.059Z,15.25
2018-08-24T06:02:38.179Z,15.31
2018-08-24T06:03:42.848Z,15.07
2018-08-24T06:04:47.538Z,14.97
2018-08-24T06:05:57.120Z,15.05
2018-08-24T06:07:02.576Z,15.12
2018-08-24T06:08:07.518Z,15.12
2018-08-24T06:09:15.432Z,15.20
2018-08-24T06:10:20.642Z,15.29
2018-08-24T06:11:25.289Z,15.37
2018-08-24T06:12:32.017Z,15.38
2018-08-24T06:13:37.416Z,15.32
2018-08-24T06:14:42.491Z,15.13
2018-08-24T06:15:50.450Z,15.04
2018-08-24T06:17:00.219Z,15.08
2018-08-24T06:18:05.660Z,15.16
2018-08-24T06:19:10.795Z,14.98
2018-08-24T06:20:15.573Z,15.06
2018-08-24T06:21:20.412Z,15.05
2018-08-24T06:22:25.693Z,15.02
2018-08-24T06:23:30.576Z,15.21
2018-08-24T06:24:35.372Z,15.24
2018-08-24T06:25:40.188Z,15.27
2018-08-24T06:26:44.985Z,15.36
2018-08-24T06:27:49.791Z,15.41
2018-08-24T06:28:55.092Z,15.20
2018-08-24T06:30:00.873Z,15.00
2018-08-24T06:31:06.012Z,15.02
2018-08-24T06:32:11.550Z,15.13
2018-08-24T06:33:16.355Z,14.96
2018-08-24T06:34:21.241Z,15.04
2018-08-24T06:35:26.473Z,15.08
2018-08-24T06:36:31.111Z,15.19
2018-08-24T06:37:35.781Z,15.36
2018-08-24T06:38:40.565Z,15.40
2018-08-24T06:39:45.290Z,15.59
2018-08-24T06:40:49.943Z,15.70
2018-08-24T06:41:55.293Z,15.83
2018-08-24T06:43:00.756Z,15.69
2018-08-24T06:44:05.465Z,15.36
2018-08-24T06:45:10.282Z,15.25
2018-08-24T06:46:15.597Z,15.29
2018-08-24T06:47:21.626Z,15.25
2018-08-24T06:48:27.035Z,15.18
2018-08-24T06:49:31.729Z,15.15
2018-08-24T06:50:36.454Z,15.14
2018-08-24T06:51:41.209Z,15.00
2018-08-24T06:52:46.696Z,15.17
2018-08-24T06:53:51.650Z,15.33
2018-08-24T06:54:56.819Z,15.23
2018-08-24T06:56:01.660Z,15.21
2018-08-24T06:57:07.065Z,15.18
2018-08-24T06:58:11.970Z,15.12
2018-08-24T06:59:19.047Z,14.90
2018-08-24T07:00:29.580Z,14.84
2018-08-24T07:01:38.859Z,14.82
2018-08-24T07:02:45.439Z,14.81
2018-08-24T07:03:50.063Z,14.82
2018-08-24T07:04:55.298Z,14.82
2018-08-24T07:06:02.110Z,14.79
2018-08-24T07:07:07.574Z,14.66
2018-08-24T07:08:13.817Z,14.63
2018-08-24T07:09:22.026Z,14.60
2018-08-24T07:10:27.645Z,14.80
2018-08-24T07:11:33.990Z,14.98
2018-08-24T07:12:38.726Z,14.94
2018-08-24T07:13:44.124Z,14.87
2018-08-24T07:14:48.740Z,15.04
2018-08-24T07:15:53.613Z,15.25
2018-08-24T07:17:01.243Z,15.20
2018-08-24T07:18:06.251Z,15.20
2018-08-24T07:19:11.082Z,15.00
2018-08-24T07:20:16.407Z,14.92
2018-08-24T07:21:21.421Z,14.89
2018-08-24T07:22:27.187Z,14.95
2018-08-24T07:23:32.973Z,15.09
2018-08-24T07:24:40.641Z,15.11
2018-08-24T07:25:45.423Z,15.16
2018-08-24T07:26:50.747Z,15.16
2018-08-24T07:27:55.550Z,15.00
2018-08-24T07:29:00.241Z,15.10
2018-08-24T07:30:05.181Z,15.13
2018-08-24T07:31:11.381Z,15.21
2018-08-24T07:32:16.707Z,15.16
2018-08-24T07:33:22.057Z,14.97
2018-08-24T07:34:27.145Z,14.88
2018-08-24T07:35:31.900Z,15.06
2018-08-24T07:36:38.938Z,15.01
2018-08-24T07:37:43.881Z,14.90
2018-08-24T07:38:49.573Z,14.92
2018-08-24T07:39:54.768Z,14.82
2018-08-24T07:40:59.456Z,14.73
2018-08-24T07:42:06.966Z,14.81
2018-08-24T07:43:11.737Z,14.69
2018-08-24T07:44:18.276Z,14.68
2018-08-24T07:45:25.526Z,14.66
2018-08-24T07:46:30.571Z,14.72
2018-08-24T07:47:35.449Z,15.00
2018-08-24T07:48:40.800Z,15.36
2018-08-24T07:49:46.239Z,15.65
2018-08-24T07:50:54.085Z,15.47
2018-08-24T07:52:00.476Z,15.20
2018-08-24T07:53:05.422Z,15.12
2018-08-24T07:54:10.264Z,15.08
2018-08-24T07:55:15.075Z,15.31
2018-08-24T07:56:19.737Z,15.43
2018-08-24T07:57:24.846Z,15.54
2018-08-24T07:58:45.914Z,15.35
2018-08-24T07:59:54.163Z,15.58
2018-08-24T08:00:58.856Z,15.36
2018-08-24T08:02:04.024Z,15.43
2018-08-24T08:03:09.740Z,15.62
2018-08-24T08:04:14.820Z,15.66
2018-08-24T08:05:20.249Z,15.75
2018-08-24T08:06:24.967Z,15.87
2018-08-24T08:07:29.734Z,16.03
2018-08-24T08:08:34.657Z,16.11
2018-08-24T08:09:40.193Z,16.11
2018-08-24T08:10:50.162Z,16.00
2018-08-24T08:11:57.148Z,15.97
2018-08-24T08:13:03.293Z,15.95
2018-08-24T08:14:10.305Z,15.72
2018-08-24T08:15:17.386Z,15.66
2018-08-24T08:16:23.241Z,15.80
2018-08-24T08:17:32.064Z,15.75
2018-08-24T08:18:38.578Z,15.77
2018-08-24T08:19:43.328Z,15.94
2018-08-24T08:20:48.816Z,16.06
2018-08-24T08:21:56.413Z,16.02
2018-08-24T08:23:05.030Z,16.06
2018-08-24T08:24:12.948Z,16.14
2018-08-24T08:25:17.636Z,15.97
2018-08-24T08:26:24.658Z,15.93
2018-08-24T08:27:31.445Z,15.86
2018-08-24T08:28:36.150Z,15.82
2018-08-24T08:29:45.984Z,16.00
2018-08-24T08:30:51.369Z,15.89
2018-08-24T08:31:56.753Z,15.84
2018-08-24T08:33:01.827Z,16.09
2018-08-24T08:34:07.354Z,16.28
2018-08-24T08:35:11.998Z,16.08
2018-08-24T08:36:17.482Z,15.84
2018-08-24T08:37:23.267Z,15.85
2018-08-24T08:38:27.961Z,15.77
2018-08-24T08:39:32.711Z,15.72
2018-08-24T08:40:38.074Z,15.82
2018-08-24T08:41:43.193Z,15.95
2018-08-24T08:42:48.389Z,16.17
2018-08-24T08:43:53.877Z,16.05
2018-08-24T08:44:58.796Z,15.96
2018-08-24T08:46:04.451Z,15.88
2018-08-24T08:47:09.319Z,16.15
2018-08-24T08:48:14.358Z,16.49
2018-08-24T08:49:20.596Z,16.86
2018-08-24T08:50:25.935Z,16.53
2018-08-24T08:51:30.661Z,16.46
2018-08-24T08:52:36.287Z,16.65
2018-08-24T08:53:41.047Z,16.82
2018-08-24T08:54:46.272Z,16.63
2018-08-24T08:55:51.466Z,16.66
2018-08-24T08:56:57.148Z,16.70
2018-08-24T08:58:01.818Z,17.00
2018-08-24T08:59:06.473Z,17.17
2018-08-24T09:00:11.912Z,17.09
2018-08-24T09:01:16.890Z,17.02
2018-08-24T09:02:23.243Z,16.63
2018-08-24T09:03:27.928Z,16.54
2018-08-24T09:04:32.683Z,16.70
2018-08-24T09:05:40.537Z,16.74
2018-08-24T09:06:45.475Z,16.89
2018-08-24T09:07:50.180Z,16.90
2018-08-24T09:08:55.386Z,17.01
2018-08-24T09:10:00.184Z,16.71
2018-08-24T09:11:04.909Z,16.71
2018-08-24T09:12:11.243Z,16.82
2018-08-24T09:13:16.544Z,16.73
2018-08-24T09:14:23.504Z,16.47
2018-08-24T09:15:28.788Z,16.67
2018-08-24T09:16:33.512Z,16.93
2018-08-24T09:17:44.052Z,16.93
2018-08-24T09:18:53.644Z,16.94
2018-08-24T09:20:03.168Z,17.10
2018-08-24T09:21:12.930Z,17.10
2018-08-24T09:22:22.599Z,17.10
2018-08-24T09:23:32.184Z,17.02
2018-08-24T09:24:41.913Z,17.05
2018-08-24T09:25:51.630Z,17.14
2018-08-24T09:27:02.512Z,17.27
2018-08-24T09:28:12.209Z,17.09
2018-08-24T09:29:22.353Z,16.98
2018-08-24T09:30:33.372Z,16.96
2018-08-24T09:31:39.633Z,17.23
2018-08-24T09:32:44.565Z,17.32
2018-08-24T09:33:49.594Z,16.99
2018-08-24T09:34:54.430Z,16.89
2018-08-24T09:36:03.337Z,17.21
2018-08-24T09:37:14.488Z,17.47
2018-08-24T09:38:20.190Z,17.14
2018-08-24T09:39:29.125Z,17.45
2018-08-24T09:40:39.414Z,17.37
2018-08-24T09:41:44.348Z,17.65
2018-08-24T09:42:49.065Z,17.96
2018-08-24T09:43:57.909Z,18.01
2018-08-24T09:45:03.452Z,17.70
2018-08-24T09:46:08.717Z,17.55
2018-08-24T09:47:19.843Z,17.90
2018-08-24T09:48:33.761Z,17.98
2018-08-24T09:49:41.345Z,17.93
2018-08-24T09:50:50.986Z,17.82
2018-08-24T09:51:55.690Z,18.10
2018-08-24T09:53:06.952Z,18.31
2018-08-24T09:54:11.953Z,18.49
2018-08-24T09:55:16.868Z,18.47
2018-08-24T09:56:21.716Z,18.63
2018-08-24T09:57:27.279Z,18.64
2018-08-24T09:58:34.309Z,18.92
2018-08-24T09:59:40.112Z,18.43
2018-08-24T10:00:49.684Z,18.01
2018-08-24T10:01:59.335Z,17.99
2018-08-24T10:03:09.578Z,18.24
2018-08-24T10:04:20.028Z,18.55
2018-08-24T10:05:30.232Z,19.07
2018-08-24T10:06:39.923Z,19.33
2018-08-24T10:07:49.670Z,19.14
2018-08-24T10:08:54.397Z,18.45
2018-08-24T10:09:59.240Z,18.23
2018-08-24T10:11:04.484Z,18.17
2018-08-24T10:12:09.280Z,18.29
2018-08-24T10:13:15.606Z,18.27
2018-08-24T10:14:20.866Z,18.28
2018-08-24T10:15:26.097Z,18.14
2018-08-24T10:16:31.380Z,18.10
2018-08-24T10:17:36.496Z,18.18
2018-08-24T10:18:42.684Z,18.30
2018-08-24T10:19:49.622Z,18.35
2018-08-24T10:20:55.305Z,18.44
2018-08-24T10:22:00.137Z,18.45
2018-08-24T10:23:05.907Z,18.36
2018-08-24T10:24:13.309Z,18.34
2018-08-24T10:25:18.144Z,18.36
2018-08-24T10:26:23.418Z,18.26
2018-08-24T10:27:28.846Z,18.58
2018-08-24T10:28:34.272Z,18.94
2018-08-24T10:29:41.570Z,19.27
2018-08-24T10:32:22.233Z,19.13
2018-08-24T10:33:30.139Z,19.24
2018-08-24T10:34:35.986Z,19.39
2018-08-24T10:35:42.426Z,18.88
2018-08-24T10:36:47.282Z,18.79
2018-08-24T10:37:53.863Z,18.44
2018-08-24T10:39:02.510Z,18.39
2018-08-24T10:40:09.226Z,18.25
2018-08-24T10:41:14.397Z,18.15
2018-08-24T10:42:19.240Z,17.93
2018-08-24T10:43:25.117Z,18.17
2018-08-24T10:44:30.354Z,18.39
2018-08-24T10:45:36.510Z,18.47
2018-08-24T10:46:41.995Z,18.76
2018-08-24T10:47:47.161Z,19.02
2018-08-24T10:48:56.321Z,18.32
2018-08-24T10:50:02.725Z,18.34
2018-08-24T10:51:07.496Z,18.88
2018-08-24T10:52:12.812Z,19.16
2018-08-24T10:53:18.434Z,18.38
2018-08-24T10:54:27.591Z,18.54
2018-08-24T10:55:32.669Z,18.98
2018-08-24T10:56:38.622Z,19.28
2018-08-24T10:57:44.282Z,19.52
2018-08-24T10:58:48.949Z,19.76
2018-08-24T10:59:53.653Z,19.77
2018-08-24T11:00:59.547Z,19.62
2018-08-24T11:02:04.272Z,19.78
2018-08-24T11:03:09.981Z,19.31
2018-08-24T11:04:14.664Z,18.69
2018-08-24T11:05:22.149Z,18.23
2018-08-24T11:06:27.892Z,18.31
2018-08-24T11:07:32.612Z,18.37
2018-08-24T11:08:39.772Z,18.15
2018-08-24T11:09:47.443Z,17.94
2018-08-24T11:10:52.158Z,18.07
2018-08-24T11:11:57.522Z,18.22
2018-08-24T11:13:02.323Z,18.30
2018-08-24T11:14:07.330Z,18.16
2018-08-24T11:15:12.075Z,18.01
2018-08-24T11:16:17.114Z,18.04
2018-08-24T11:17:21.843Z,18.03
2018-08-24T11:18:26.492Z,18.11
2018-08-24T11:19:31.410Z,18.33
2018-08-24T11:20:36.906Z,18.41
2018-08-24T11:21:46.635Z,18.24
2018-08-24T11:22:53.895Z,18.12
2018-08-24T11:24:00.781Z,18.16
2018-08-24T11:25:05.823Z,18.25
2018-08-24T11:26:10.713Z,18.50
2018-08-24T11:27:15.671Z,18.69
2018-08-24T11:28:20.523Z,19.04
2018-08-24T11:29:26.821Z,19.47
2018-08-24T11:30:32.407Z,19.65
2018-08-24T11:31:38.400Z,19.68
2018-08-24T11:32:43.253Z,19.40
2018-08-24T11:33:49.741Z,19.64
2018-08-24T11:34:55.847Z,19.77
2018-08-24T11:36:01.642Z,20.22
2018-08-24T11:37:06.272Z,19.93
2018-08-24T11:38:11.837Z,20.34
2018-08-24T11:39:16.737Z,20.50
2018-08-24T11:40:22.407Z,20.14
2018-08-24T11:41:28.230Z,19.81
2018-08-24T11:42:34.018Z,19.64
2018-08-24T11:43:39.816Z,19.29
2018-08-24T11:44:46.635Z,19.52
2018-08-24T11:45:52.330Z,20.14
2018-08-24T11:46:59.441Z,20.31
2018-08-24T11:48:05.037Z,20.37
2018-08-24T11:49:09.929Z,20.33
2018-08-24T11:50:15.512Z,20.22
2018-08-24T11:51:22.574Z,20.13
2018-08-24T11:52:27.355Z,19.88
2018-08-24T11:53:33.226Z,19.77
2018-08-24T11:54:39.325Z,19.75
2018-08-24T11:55:45.440Z,20.12
2018-08-24T11:56:51.153Z,20.54
2018-08-24T11:57:56.554Z,20.17
2018-08-24T11:59:01.579Z,19.74
2018-08-24T12:00:07.454Z,19.36
2018-08-24T12:01:13.221Z,19.22
2018-08-24T12:02:18.050Z,19.22
2018-08-24T12:03:23.401Z,19.09
2018-08-24T12:04:28.060Z,19.05
2018-08-24T12:05:32.994Z,19.06
2018-08-24T12:06:38.534Z,19.24
2018-08-24T12:07:44.038Z,19.64
2018-08-24T12:08:49.784Z,19.76
2018-08-24T12:09:54.472Z,19.91
2018-08-24T12:10:59.422Z,19.86
2018-08-24T12:12:04.327Z,19.26
2018-08-24T12:13:09.631Z,19.25
2018-08-24T12:14:15.373Z,19.33
2018-08-24T12:15:20.430Z,19.26
2018-08-24T12:16:25.410Z,19.25
2018-08-24T12:17:37.543Z,19.06
2018-08-24T12:18:44.036Z,18.97
2018-08-24T12:19:48.792Z,19.18
2018-08-24T12:20:54.396Z,19.42
2018-08-24T12:22:00.661Z,19.48
2018-08-24T12:23:05.466Z,19.46
2018-08-24T12:24:11.468Z,19.69
2018-08-24T12:25:17.686Z,19.87
2018-08-24T12:26:23.170Z,20.21
2018-08-24T12:27:27.884Z,19.87
2018-08-24T12:28:34.103Z,19.43
2018-08-24T12:29:38.790Z,19.15
2018-08-24T12:30:45.258Z,19.14
2018-08-24T12:31:50.344Z,19.32
2018-08-24T12:32:56.156Z,19.53
2018-08-24T12:34:01.773Z,19.82
2018-08-24T12:35:07.414Z,19.69
2018-08-24T12:36:13.490Z,19.69
2018-08-24T12:37:21.185Z,19.76
2018-08-24T12:38:27.966Z,19.88
2018-08-24T12:39:33.297Z,20.53
2018-08-24T12:40:38.150Z,21.10
2018-08-24T12:41:43.399Z,20.66
2018-08-24T12:42:49.768Z,20.87
2018-08-24T12:43:55.573Z,20.68
2018-08-24T12:45:01.263Z,20.07
2018-08-24T12:46:06.291Z,19.74
2018-08-24T12:47:13.627Z,19.74
2018-08-24T12:48:21.087Z,19.62
2018-08-24T12:49:25.959Z,19.87
2018-08-24T12:50:31.581Z,20.04
2018-08-24T12:51:38.980Z,20.22
2018-08-24T12:52:45.546Z,19.91
2018-08-24T12:53:51.462Z,19.85
2018-08-24T12:54:58.275Z,20.28
2018-08-24T12:56:03.509Z,20.37
2018-08-24T12:57:12.129Z,20.87
2018-08-24T12:58:17.313Z,20.94
2018-08-24T12:59:27.570Z,21.63
2018-08-24T13:00:32.281Z,22.53
2018-08-24T13:01:39.844Z,22.60
2018-08-24T13:02:46.435Z,22.80
2018-08-24T13:03:51.220Z,22.22
2018-08-24T13:04:57.482Z,21.75
2018-08-24T13:06:02.340Z,21.94
2018-08-24T13:07:08.139Z,21.92
2018-08-24T13:08:13.514Z,20.82
2018-08-24T13:09:18.336Z,20.61
2018-08-24T13:10:23.802Z,20.93
2018-08-24T13:11:30.958Z,21.18
2018-08-24T13:12:36.006Z,20.90
2018-08-24T13:13:42.837Z,21.44
2018-08-24T13:14:49.306Z,22.91
2018-08-24T13:15:57.155Z,22.35
2018-08-24T13:17:03.073Z,22.54
2018-08-24T13:18:09.347Z,22.52
2018-08-24T13:19:14.214Z,21.46
2018-08-24T13:20:18.958Z,21.57
2018-08-24T13:21:23.804Z,22.06
2018-08-24T13:22:28.827Z,21.83
2018-08-24T13:23:34.489Z,21.69
2018-08-24T13:24:39.631Z,20.89
2018-08-24T13:25:44.410Z,20.37
2018-08-24T13:26:49.164Z,19.97
2018-08-24T13:27:54.674Z,19.74
2018-08-24T13:28:59.552Z,20.12
2018-08-24T13:30:04.632Z,21.10
2018-08-24T13:31:09.837Z,21.79
2018-08-24T13:32:14.606Z,21.58
2018-08-24T13:33:19.513Z,21.82
2018-08-24T13:34:24.439Z,21.73
2018-08-24T13:35:30.170Z,21.70
2018-08-24T13:36:34.967Z,21.32
2018-08-24T13:37:41.518Z,21.74
2018-08-24T13:38:46.363Z,22.10
2018-08-24T13:39:51.130Z,21.41
2018-08-24T13:41:00.614Z,20.82
2018-08-24T13:42:14.157Z,20.80
2018-08-24T13:43:19.565Z,21.02
2018-08-24T13:44:25.464Z,21.02
2018-08-24T13:45:31.416Z,20.80
2018-08-24T13:46:37.980Z,20.83
2018-08-24T13:47:42.734Z,20.70
2018-08-24T13:48:47.648Z,20.96
2018-08-24T13:49:55.244Z,20.86
2018-08-24T13:51:02.673Z,21.16
2018-08-24T13:52:07.527Z,21.15
2018-08-24T13:53:12.990Z,20.63
2018-08-24T13:54:19.741Z,20.21
2018-08-24T13:55:24.631Z,20.42
2018-08-24T13:56:30.246Z,20.90
2018-08-24T13:57:35.505Z,21.20
2018-08-24T13:58:41.305Z,21.53
2018-08-24T13:59:46.138Z,21.67
2018-08-24T14:00:50.889Z,21.89
2018-08-24T14:01:56.311Z,22.11
2018-08-24T14:03:02.002Z,22.32
2018-08-24T14:04:07.043Z,22.59
2018-08-24T14:05:16.013Z,22.78
2018-08-24T14:06:21.119Z,22.54
2018-08-24T14:07:29.668Z,22.40
2018-08-24T14:08:34.704Z,21.83
2018-08-24T14:09:40.630Z,21.12
2018-08-24T14:10:46.488Z,20.55